SBPG/PNG METAR and TAF weather

Enter ICAO airport designator
Station Type Date Time Source
SBPG METAR 2019/06/18 16:00 UTC NOAA

SBPG 181600Z 27002KT 9999 BKN065 19/14 Q1022


Station Type Date Time Source
SBPG Decoded METAR 2019/06/18 16:00 UTC NOAA

Paranagua, Brazil (SBPG) 25-31S 048-31W
Jun 18, 2019 - 12:00 PM EDT / 2019.06.18 1600 UTC
Wind: from the W (270 degrees) at 2 MPH (2 KT):0
Visibility: greater than 7 mile(s):0
Sky conditions: mostly cloudy
Temperature: 66 F (19 C)
Dew Point: 57 F (14 C)
Relative Humidity: 72%
Pressure (altimeter): 30.18 in. Hg (1022 hPa)
ob: SBPG 181600Z 27002KT 9999 BKN065 19/14 Q1022
cycle: 16

Station Type Date Time Source
SBPG TAF UTC NOAA

Error!

Example: see airport list